createdAt,value
2016-07-07T00:00:24.011Z,0
2016-07-07T00:01:24.040Z,0
2016-07-07T00:02:24.062Z,0
2016-07-07T00:03:24.068Z,0
2016-07-07T00:04:24.098Z,0
2016-07-07T00:05:24.100Z,0
2016-07-07T00:06:24.125Z,0
2016-07-07T00:07:24.151Z,0
2016-07-07T00:08:24.144Z,0
2016-07-07T00:09:24.179Z,0
2016-07-07T00:10:24.194Z,0
2016-07-07T00:11:24.218Z,0
2016-07-07T00:12:24.238Z,0
2016-07-07T00:13:24.250Z,0
2016-07-07T00:14:24.290Z,0
2016-07-07T00:15:24.293Z,0
2016-07-07T00:16:24.308Z,0
2016-07-07T00:17:24.321Z,0
2016-07-07T00:18:24.326Z,0
2016-07-07T00:19:24.360Z,0
2016-07-07T00:20:24.351Z,0
2016-07-07T00:21:24.759Z,0
2016-07-07T00:22:24.375Z,0
2016-07-07T00:23:24.426Z,0
2016-07-07T00:24:24.451Z,0
2016-07-07T00:25:24.471Z,0
2016-07-07T00:26:24.499Z,0
2016-07-07T00:27:24.501Z,0
2016-07-07T00:28:24.526Z,0
2016-07-07T00:29:24.560Z,0
2016-07-07T00:30:24.538Z,0
2016-07-07T00:31:24.557Z,0
2016-07-07T00:32:24.565Z,0
2016-07-07T00:33:24.597Z,0
2016-07-07T00:34:24.610Z,0
2016-07-07T00:35:24.660Z,0
2016-07-07T00:36:24.661Z,0
2016-07-07T00:37:24.702Z,0
2016-07-07T00:38:24.718Z,0
2016-07-07T00:39:24.734Z,0
2016-07-07T00:40:24.745Z,0
2016-07-07T00:41:24.793Z,0
2016-07-07T00:42:24.787Z,0
2016-07-07T00:43:24.792Z,0
2016-07-07T00:44:24.824Z,0
2016-07-07T00:45:24.846Z,0
2016-07-07T00:46:24.855Z,0
2016-07-07T00:47:24.874Z,0
2016-07-07T00:48:24.886Z,0
2016-07-07T00:49:24.912Z,0
2016-07-07T00:50:24.930Z,0
2016-07-07T00:51:24.939Z,0
2016-07-07T00:52:24.959Z,0
2016-07-07T00:53:24.982Z,0
2016-07-07T00:54:25.013Z,0
2016-07-07T00:55:25.003Z,0
2016-07-07T00:56:25.036Z,0
2016-07-07T00:57:25.049Z,0
2016-07-07T00:58:25.051Z,0
2016-07-07T00:59:25.083Z,0
2016-07-07T01:00:25.080Z,0
2016-07-07T01:01:25.776Z,0
2016-07-07T01:02:25.148Z,0
2016-07-07T01:03:25.162Z,0
2016-07-07T01:04:25.190Z,0
2016-07-07T01:05:25.186Z,0
2016-07-07T01:06:25.215Z,0
2016-07-07T01:07:25.231Z,0
2016-07-07T01:08:25.247Z,0
2016-07-07T01:09:25.268Z,0
2016-07-07T01:10:25.283Z,0
2016-07-07T01:11:25.331Z,0
2016-07-07T01:12:25.343Z,0
2016-07-07T01:13:25.361Z,0
2016-07-07T01:14:25.358Z,0
2016-07-07T01:15:25.419Z,0
2016-07-07T01:16:25.405Z,0
2016-07-07T01:17:25.423Z,0
2016-07-07T01:18:25.458Z,0
2016-07-07T01:19:26.075Z,0
2016-07-07T01:20:25.486Z,0
2016-07-07T01:21:25.476Z,0
2016-07-07T01:22:25.506Z,0
2016-07-07T01:23:25.519Z,0
2016-07-07T01:24:25.534Z,0
2016-07-07T01:25:25.572Z,0
2016-07-07T01:26:25.594Z,0
2016-07-07T01:27:25.608Z,0
2016-07-07T01:28:25.628Z,0
2016-07-07T01:29:25.657Z,0
2016-07-07T01:30:25.667Z,0
2016-07-07T01:31:25.680Z,0
2016-07-07T01:32:25.701Z,0
2016-07-07T01:33:25.677Z,0
2016-07-07T01:34:25.715Z,0
2016-07-07T01:35:25.739Z,0
2016-07-07T01:36:25.785Z,0
2016-07-07T01:37:25.784Z,0
2016-07-07T01:38:25.810Z,0
2016-07-07T01:39:25.815Z,0
2016-07-07T01:40:25.816Z,0
2016-07-07T01:41:25.853Z,0
2016-07-07T01:42:25.886Z,0
2016-07-07T01:43:25.906Z,0
2016-07-07T01:44:25.923Z,0
2016-07-07T01:45:25.904Z,0
2016-07-07T01:46:25.938Z,0
2016-07-07T01:47:25.944Z,0
2016-07-07T01:48:25.974Z,0
2016-07-07T01:49:25.994Z,0
2016-07-07T01:50:25.971Z,0
2016-07-07T01:51:25.983Z,0
2016-07-07T01:52:26.013Z,0
2016-07-07T01:53:26.048Z,0
2016-07-07T01:54:26.067Z,0
2016-07-07T01:55:26.084Z,0
2016-07-07T01:56:26.095Z,0
2016-07-07T01:57:26.116Z,0
2016-07-07T01:58:26.129Z,0
2016-07-07T01:59:26.145Z,0
2016-07-07T02:00:26.221Z,0
2016-07-07T02:01:26.220Z,0
2016-07-07T02:02:26.202Z,0
2016-07-07T02:03:26.219Z,0
2016-07-07T02:04:26.246Z,0
2016-07-07T02:05:26.264Z,0
2016-07-07T02:06:26.272Z,0
2016-07-07T02:07:26.298Z,0
2016-07-07T02:08:26.300Z,0
2016-07-07T02:09:26.319Z,0
2016-07-07T02:10:26.348Z,0
2016-07-07T02:11:26.364Z,0
2016-07-07T02:12:26.377Z,0
2016-07-07T02:13:26.389Z,0
2016-07-07T02:14:26.409Z,0
2016-07-07T02:15:26.420Z,0
2016-07-07T02:16:26.445Z,0
2016-07-07T02:17:26.452Z,0
2016-07-07T02:18:26.468Z,0
2016-07-07T02:19:26.497Z,0
2016-07-07T02:20:26.504Z,0
2016-07-07T02:21:26.532Z,0
2016-07-07T02:22:26.570Z,0
2016-07-07T02:23:26.584Z,0
2016-07-07T02:24:26.605Z,0
2016-07-07T02:25:26.609Z,0
2016-07-07T02:26:26.620Z,0
2016-07-07T02:27:26.667Z,0
2016-07-07T02:28:26.652Z,0
2016-07-07T02:29:26.690Z,0
2016-07-07T02:30:26.695Z,0
2016-07-07T02:31:26.713Z,0
2016-07-07T02:32:26.712Z,0
2016-07-07T02:33:26.762Z,0
2016-07-07T02:34:26.761Z,0
2016-07-07T02:35:26.775Z,0
2016-07-07T02:36:26.818Z,0
2016-07-07T02:37:26.803Z,0
2016-07-07T02:38:26.837Z,0
2016-07-07T02:39:26.822Z,0
2016-07-07T02:40:26.878Z,0
2016-07-07T02:41:26.899Z,0
2016-07-07T02:42:26.904Z,0
2016-07-07T02:43:26.929Z,0
2016-07-07T02:44:26.948Z,0
2016-07-07T02:45:26.925Z,0
2016-07-07T02:46:26.940Z,0
2016-07-07T02:47:26.966Z,0
2016-07-07T02:48:27.001Z,0
2016-07-07T02:49:27.010Z,0
2016-07-07T02:50:27.034Z,0
2016-07-07T02:51:27.035Z,0
2016-07-07T02:52:27.066Z,0
2016-07-07T02:53:27.078Z,0
2016-07-07T02:54:27.093Z,0
2016-07-07T02:55:27.124Z,0
2016-07-07T02:56:27.141Z,0
2016-07-07T02:57:27.171Z,0
2016-07-07T02:58:27.188Z,0
2016-07-07T02:59:27.189Z,0
2016-07-07T03:00:27.206Z,0
2016-07-07T03:01:27.233Z,0
2016-07-07T03:02:27.238Z,0
2016-07-07T03:03:27.258Z,0
2016-07-07T03:04:27.260Z,0
2016-07-07T03:05:27.302Z,0
2016-07-07T03:06:27.309Z,0
2016-07-07T03:07:27.318Z,0
2016-07-07T03:08:27.339Z,0
2016-07-07T03:09:27.332Z,5
2016-07-07T03:10:27.371Z,5
2016-07-07T03:11:27.387Z,5
2016-07-07T03:12:27.414Z,5
2016-07-07T03:13:27.424Z,5
2016-07-07T03:14:27.457Z,5
2016-07-07T03:15:27.455Z,5
2016-07-07T03:16:27.487Z,5
2016-07-07T03:17:27.509Z,5
2016-07-07T03:18:27.506Z,5
2016-07-07T03:19:27.497Z,10
2016-07-07T03:20:27.533Z,10
2016-07-07T03:21:27.535Z,10
2016-07-07T03:22:27.561Z,10
2016-07-07T03:23:27.562Z,10
2016-07-07T03:24:27.587Z,10
2016-07-07T03:25:27.633Z,10
2016-07-07T03:26:27.650Z,15
2016-07-07T03:27:27.656Z,15
2016-07-07T03:28:27.670Z,15
2016-07-07T03:29:27.684Z,15
2016-07-07T03:30:27.704Z,15
2016-07-07T03:31:27.713Z,15
2016-07-07T03:32:27.743Z,20
2016-07-07T03:33:27.752Z,20
2016-07-07T03:34:27.770Z,20
2016-07-07T03:35:27.764Z,20
2016-07-07T03:36:27.803Z,20
2016-07-07T03:37:27.802Z,20
2016-07-07T03:38:27.823Z,25
2016-07-07T03:39:27.862Z,25
2016-07-07T03:40:27.865Z,25
2016-07-07T03:41:27.871Z,25
2016-07-07T03:42:27.887Z,25
2016-07-07T03:43:27.920Z,30
2016-07-07T03:44:27.939Z,30
2016-07-07T03:45:27.937Z,30
2016-07-07T03:46:27.975Z,35
2016-07-07T03:47:27.977Z,35
2016-07-07T03:48:28.007Z,35
2016-07-07T03:49:28.031Z,35
2016-07-07T03:50:28.027Z,35
2016-07-07T03:51:28.038Z,40
2016-07-07T03:52:28.050Z,40
2016-07-07T03:53:28.067Z,45
2016-07-07T03:54:28.071Z,45
2016-07-07T03:55:28.119Z,45
2016-07-07T03:56:28.125Z,50
2016-07-07T03:57:28.128Z,50
2016-07-07T03:58:28.170Z,55
2016-07-07T03:59:28.177Z,55
2016-07-07T04:00:28.180Z,55
2016-07-07T04:01:28.185Z,60
2016-07-07T04:02:28.209Z,60
2016-07-07T04:03:28.240Z,65
2016-07-07T04:04:28.255Z,65
2016-07-07T04:05:28.283Z,70
2016-07-07T04:06:28.308Z,70
2016-07-07T04:07:28.300Z,75
2016-07-07T04:08:28.335Z,75
2016-07-07T04:09:28.324Z,75
2016-07-07T04:10:28.356Z,75
2016-07-07T04:11:28.356Z,75
2016-07-07T04:12:28.389Z,80
2016-07-07T04:13:28.406Z,80
2016-07-07T04:14:28.414Z,80
2016-07-07T04:15:28.440Z,85
2016-07-07T04:16:28.471Z,85
2016-07-07T04:17:28.485Z,85
2016-07-07T04:18:28.504Z,90
2016-07-07T04:19:28.528Z,90
2016-07-07T04:20:28.551Z,95
2016-07-07T04:21:28.526Z,95
2016-07-07T04:22:28.555Z,90
2016-07-07T04:23:28.573Z,100
2016-07-07T04:24:28.589Z,100
2016-07-07T04:25:28.611Z,100
2016-07-07T04:26:28.600Z,105
2016-07-07T04:27:28.639Z,105
2016-07-07T04:28:28.667Z,105
2016-07-07T04:29:28.660Z,105
2016-07-07T04:30:28.669Z,110
2016-07-07T04:31:28.699Z,105
2016-07-07T04:32:28.731Z,105
2016-07-07T04:33:28.755Z,105
2016-07-07T04:34:28.752Z,115
2016-07-07T04:35:28.800Z,115
2016-07-07T04:36:28.811Z,120
2016-07-07T04:37:28.834Z,120
2016-07-07T04:38:28.849Z,120
2016-07-07T04:39:28.856Z,125
2016-07-07T04:40:28.878Z,125
2016-07-07T04:41:28.926Z,125
2016-07-07T04:42:28.910Z,125
2016-07-07T04:43:28.927Z,130
2016-07-07T04:44:28.945Z,130
2016-07-07T04:45:28.985Z,130
2016-07-07T04:46:28.974Z,135
2016-07-07T04:47:29.012Z,135
2016-07-07T04:48:29.023Z,135
2016-07-07T04:49:29.061Z,135
2016-07-07T04:50:29.037Z,140
2016-07-07T04:51:29.059Z,135
2016-07-07T04:52:29.083Z,135
2016-07-07T04:53:29.112Z,140
2016-07-07T04:54:29.125Z,140
2016-07-07T04:55:29.143Z,135
2016-07-07T04:56:29.156Z,140
2016-07-07T04:57:29.201Z,135
2016-07-07T04:58:29.259Z,135
2016-07-07T04:59:29.246Z,140
2016-07-07T05:00:29.242Z,140
2016-07-07T05:01:29.244Z,135
2016-07-07T05:02:29.261Z,135
2016-07-07T05:03:29.283Z,140
2016-07-07T05:04:29.313Z,145
2016-07-07T05:05:29.334Z,140
2016-07-07T05:06:29.369Z,145
2016-07-07T05:07:29.364Z,145
2016-07-07T05:08:29.397Z,140
2016-07-07T05:09:29.413Z,150
2016-07-07T05:10:29.404Z,150
2016-07-07T05:11:29.457Z,145
2016-07-07T05:12:29.462Z,150
2016-07-07T05:13:29.468Z,140
2016-07-07T05:14:29.525Z,145
2016-07-07T05:15:29.534Z,155
2016-07-07T05:16:29.544Z,150
2016-07-07T05:17:29.537Z,150
2016-07-07T05:18:29.574Z,155
2016-07-07T05:19:29.603Z,155
2016-07-07T05:20:29.613Z,160
2016-07-07T05:21:29.645Z,160
2016-07-07T05:22:29.651Z,160
2016-07-07T05:23:29.679Z,160
2016-07-07T05:24:29.690Z,165
2016-07-07T05:25:29.707Z,165
2016-07-07T05:26:29.750Z,160
2016-07-07T05:27:29.762Z,160
2016-07-07T05:28:29.788Z,160
2016-07-07T05:29:29.801Z,160
2016-07-07T05:30:29.813Z,160
2016-07-07T05:31:29.859Z,165
2016-07-07T05:32:29.849Z,160
2016-07-07T05:33:29.869Z,165
2016-07-07T05:34:29.886Z,170
2016-07-07T05:35:29.901Z,170
2016-07-07T05:36:29.920Z,165
2016-07-07T05:37:29.958Z,170
2016-07-07T05:38:29.966Z,165
2016-07-07T05:39:29.985Z,155
2016-07-07T05:40:30.002Z,130
2016-07-07T05:41:30.014Z,125
2016-07-07T05:42:30.049Z,150
2016-07-07T05:43:30.057Z,165
2016-07-07T05:44:30.075Z,170
2016-07-07T05:45:30.114Z,175
2016-07-07T05:46:30.126Z,170
2016-07-07T05:47:30.139Z,170
2016-07-07T05:48:30.137Z,170
2016-07-07T05:49:30.176Z,170
2016-07-07T05:50:30.184Z,175
2016-07-07T05:51:30.209Z,175
2016-07-07T05:52:30.211Z,175
2016-07-07T05:53:30.240Z,180
2016-07-07T05:54:30.280Z,180
2016-07-07T05:55:30.306Z,180
2016-07-07T05:56:30.318Z,180
2016-07-07T05:57:30.319Z,180
2016-07-07T05:58:30.347Z,180
2016-07-07T05:59:30.364Z,180
2016-07-07T06:00:30.375Z,185
2016-07-07T06:01:30.367Z,155
2016-07-07T06:02:30.419Z,130
2016-07-07T06:03:30.444Z,175
2016-07-07T06:04:30.468Z,180
2016-07-07T06:05:30.464Z,185
2016-07-07T06:06:30.489Z,180
2016-07-07T06:07:30.527Z,195
2016-07-07T06:08:30.543Z,190
2016-07-07T06:09:30.551Z,190
2016-07-07T06:10:30.556Z,195
2016-07-07T06:11:30.593Z,200
2016-07-07T06:12:30.623Z,205
2016-07-07T06:13:30.633Z,200
2016-07-07T06:14:30.646Z,200
2016-07-07T06:15:30.715Z,200
2016-07-07T06:16:30.715Z,200
2016-07-07T06:17:30.730Z,195
2016-07-07T06:18:30.735Z,170
2016-07-07T06:19:30.754Z,175
2016-07-07T06:20:30.789Z,190
2016-07-07T06:21:30.818Z,220
2016-07-07T06:22:30.827Z,215
2016-07-07T06:23:30.854Z,190
2016-07-07T06:24:30.863Z,185
2016-07-07T06:25:30.863Z,180
2016-07-07T06:26:30.901Z,160
2016-07-07T06:27:30.920Z,165
2016-07-07T06:28:30.941Z,165
2016-07-07T06:29:30.954Z,175
2016-07-07T06:30:30.954Z,145
2016-07-07T06:31:30.973Z,140
2016-07-07T06:32:30.981Z,140
2016-07-07T06:33:31.016Z,140
2016-07-07T06:34:31.040Z,140
2016-07-07T06:35:31.073Z,155
2016-07-07T06:36:31.099Z,140
2016-07-07T06:37:31.110Z,140
2016-07-07T06:38:31.119Z,145
2016-07-07T06:39:31.148Z,190
2016-07-07T06:40:31.161Z,150
2016-07-07T06:41:31.142Z,180
2016-07-07T06:42:31.215Z,180
2016-07-07T06:43:31.230Z,205
2016-07-07T06:44:31.238Z,180
2016-07-07T06:45:31.271Z,200
2016-07-07T06:46:31.282Z,190
2016-07-07T06:47:31.276Z,215
2016-07-07T06:48:31.329Z,240
2016-07-07T06:49:31.341Z,210
2016-07-07T06:50:31.349Z,240
2016-07-07T06:51:31.351Z,170
2016-07-07T06:52:31.403Z,165
2016-07-07T06:53:31.421Z,165
2016-07-07T06:54:31.443Z,200
2016-07-07T06:55:31.430Z,185
2016-07-07T06:56:31.478Z,150
2016-07-07T06:57:31.483Z,150
2016-07-07T06:58:31.529Z,155
2016-07-07T06:59:31.537Z,155
2016-07-07T07:00:31.559Z,155
2016-07-07T07:01:31.566Z,155
2016-07-07T07:02:31.604Z,155
2016-07-07T07:03:31.606Z,155
2016-07-07T07:04:31.677Z,155
2016-07-07T07:05:31.660Z,160
2016-07-07T07:06:31.662Z,160
2016-07-07T07:07:31.717Z,165
2016-07-07T07:08:31.752Z,165
2016-07-07T07:09:31.772Z,190
2016-07-07T07:10:31.778Z,165
2016-07-07T07:11:31.774Z,165
2016-07-07T07:12:31.775Z,165
2016-07-07T07:13:31.792Z,205
2016-07-07T07:14:31.825Z,245
2016-07-07T07:15:31.840Z,240
2016-07-07T07:16:31.870Z,245
2016-07-07T07:17:31.853Z,225
2016-07-07T07:18:31.920Z,220
2016-07-07T07:19:31.888Z,220
2016-07-07T07:20:31.942Z,195
2016-07-07T07:21:31.967Z,240
2016-07-07T07:22:31.987Z,225
2016-07-07T07:23:31.976Z,200
2016-07-07T07:24:31.999Z,170
2016-07-07T07:25:32.042Z,165
2016-07-07T07:26:32.053Z,170
2016-07-07T07:27:32.089Z,165
2016-07-07T07:28:32.103Z,180
2016-07-07T07:29:32.108Z,170
2016-07-07T07:30:32.141Z,220
2016-07-07T07:31:32.159Z,175
2016-07-07T07:32:32.191Z,235
2016-07-07T07:33:32.203Z,230
2016-07-07T07:34:32.215Z,220
2016-07-07T07:35:32.242Z,190
2016-07-07T07:36:32.267Z,225
2016-07-07T07:37:32.274Z,225
2016-07-07T07:38:32.297Z,225
2016-07-07T07:39:32.355Z,225
2016-07-07T07:40:32.336Z,225
2016-07-07T07:41:32.355Z,170
2016-07-07T07:42:32.372Z,165
2016-07-07T07:43:32.366Z,235
2016-07-07T07:44:32.417Z,225
2016-07-07T07:45:32.475Z,230
2016-07-07T07:46:32.454Z,165
2016-07-07T07:47:32.466Z,150
2016-07-07T07:48:32.507Z,210
2016-07-07T07:49:32.523Z,215
2016-07-07T07:50:32.535Z,220
2016-07-07T07:51:32.560Z,220
2016-07-07T07:52:32.572Z,225
2016-07-07T07:53:32.608Z,225
2016-07-07T07:54:32.644Z,225
2016-07-07T07:55:32.626Z,225
2016-07-07T07:56:32.646Z,220
2016-07-07T07:57:32.673Z,225
2016-07-07T07:58:32.702Z,225
2016-07-07T07:59:32.733Z,215
2016-07-07T08:00:32.744Z,225
2016-07-07T08:01:32.736Z,225
2016-07-07T08:02:32.778Z,225
2016-07-07T08:03:32.808Z,225
2016-07-07T08:04:32.833Z,230
2016-07-07T08:05:32.841Z,220
2016-07-07T08:06:32.852Z,185
2016-07-07T08:07:32.887Z,220
2016-07-07T08:08:32.912Z,220
2016-07-07T08:09:32.940Z,175
2016-07-07T08:10:32.936Z,215
2016-07-07T08:11:32.957Z,220
2016-07-07T08:12:32.977Z,205
2016-07-07T08:13:33.008Z,220
2016-07-07T08:14:33.037Z,215
2016-07-07T08:15:33.027Z,215
2016-07-07T08:16:33.071Z,205
2016-07-07T08:17:33.084Z,210
2016-07-07T08:18:33.123Z,210
2016-07-07T08:19:33.159Z,210
2016-07-07T08:20:33.151Z,215
2016-07-07T08:21:33.160Z,215
2016-07-07T08:22:33.206Z,210
2016-07-07T08:23:33.205Z,220
2016-07-07T08:24:33.222Z,215
2016-07-07T08:25:33.250Z,180
2016-07-07T08:26:33.247Z,215
2016-07-07T08:27:33.271Z,205
2016-07-07T08:28:33.300Z,215
2016-07-07T08:29:33.336Z,215
2016-07-07T08:30:33.341Z,210
2016-07-07T08:31:33.357Z,210
2016-07-07T08:32:33.373Z,205
2016-07-07T08:33:33.387Z,205
2016-07-07T08:34:33.460Z,205
2016-07-07T08:35:33.427Z,205
2016-07-07T08:36:33.481Z,210
2016-07-07T08:37:33.499Z,210
2016-07-07T08:38:33.510Z,210
2016-07-07T08:39:33.531Z,210
2016-07-07T08:40:33.542Z,205
2016-07-07T08:41:33.595Z,210
2016-07-07T08:42:33.588Z,210
2016-07-07T08:43:33.606Z,210
2016-07-07T08:44:33.601Z,210
2016-07-07T08:45:33.645Z,205
2016-07-07T08:46:33.687Z,205
2016-07-07T08:47:33.702Z,205
2016-07-07T08:48:33.690Z,205
2016-07-07T08:49:33.745Z,205
2016-07-07T08:50:33.761Z,205
2016-07-07T08:51:33.766Z,205
2016-07-07T08:52:33.796Z,205
2016-07-07T08:53:33.833Z,210
2016-07-07T08:54:33.851Z,205
2016-07-07T08:55:33.863Z,205
2016-07-07T08:56:33.889Z,205
2016-07-07T08:57:33.895Z,210
2016-07-07T08:58:33.922Z,205
2016-07-07T08:59:33.985Z,210
2016-07-07T09:00:33.957Z,205
2016-07-07T09:01:33.998Z,210
2016-07-07T09:02:34.025Z,210
2016-07-07T09:03:34.031Z,210
2016-07-07T09:04:34.084Z,205
2016-07-07T09:05:34.055Z,205
2016-07-07T09:06:34.104Z,205
2016-07-07T09:07:34.175Z,205
2016-07-07T09:08:34.154Z,195
2016-07-07T09:09:34.340Z,190
2016-07-07T09:10:34.183Z,200
2016-07-07T09:11:34.196Z,180
2016-07-07T09:12:34.217Z,170
2016-07-07T09:13:34.211Z,210
2016-07-07T09:14:34.406Z,205
2016-07-07T09:15:34.292Z,205
2016-07-07T09:16:34.310Z,205
2016-07-07T09:17:34.323Z,205
2016-07-07T09:18:34.355Z,205
2016-07-07T09:19:34.520Z,205
2016-07-07T09:20:34.361Z,205
2016-07-07T09:21:34.378Z,205
2016-07-07T09:22:34.424Z,205
2016-07-07T09:23:34.450Z,205
2016-07-07T09:24:34.624Z,205
2016-07-07T09:25:34.544Z,205
2016-07-07T09:26:34.526Z,205
2016-07-07T09:27:34.518Z,205
2016-07-07T09:28:34.583Z,205
2016-07-07T09:29:34.616Z,205
2016-07-07T09:30:34.647Z,205
2016-07-07T09:31:34.617Z,200
2016-07-07T09:32:34.643Z,205
2016-07-07T09:33:34.662Z,205
2016-07-07T09:34:34.645Z,210
2016-07-07T09:35:34.714Z,205
2016-07-07T09:36:34.692Z,205
2016-07-07T09:37:34.744Z,205
2016-07-07T09:38:34.753Z,205
2016-07-07T09:39:34.828Z,205
2016-07-07T09:40:34.795Z,205
2016-07-07T09:41:34.794Z,205
2016-07-07T09:42:34.856Z,205
2016-07-07T09:43:34.854Z,205
2016-07-07T09:44:34.894Z,205
2016-07-07T09:45:34.919Z,205
2016-07-07T09:46:34.919Z,205
2016-07-07T09:47:34.956Z,205
2016-07-07T09:48:34.978Z,205
2016-07-07T09:49:35.007Z,205
2016-07-07T09:50:35.029Z,205
2016-07-07T09:51:35.050Z,205
2016-07-07T09:52:35.038Z,205
2016-07-07T09:53:35.082Z,205
2016-07-07T09:54:35.112Z,205
2016-07-07T09:55:35.127Z,205
2016-07-07T09:56:35.144Z,205
2016-07-07T09:57:35.144Z,200
2016-07-07T09:58:35.200Z,195
2016-07-07T09:59:35.177Z,195
2016-07-07T10:00:35.218Z,205
2016-07-07T10:01:35.244Z,195
2016-07-07T10:02:35.274Z,200
2016-07-07T10:03:35.278Z,205
2016-07-07T10:04:35.300Z,205
2016-07-07T10:05:35.310Z,205
2016-07-07T10:06:35.338Z,205
2016-07-07T10:07:35.366Z,205
2016-07-07T10:08:35.375Z,205
2016-07-07T10:09:35.420Z,205
2016-07-07T10:10:35.436Z,205
2016-07-07T10:11:35.458Z,210
2016-07-07T10:12:35.469Z,205
2016-07-07T10:13:35.476Z,200
2016-07-07T10:14:35.558Z,210
2016-07-07T10:15:35.549Z,200
2016-07-07T10:16:35.580Z,210
2016-07-07T10:17:35.559Z,210
2016-07-07T10:18:35.624Z,205
2016-07-07T10:19:35.662Z,205
2016-07-07T10:20:35.624Z,200
2016-07-07T10:21:35.682Z,175
2016-07-07T10:22:35.689Z,205
2016-07-07T10:23:35.710Z,210
2016-07-07T10:24:35.786Z,210
2016-07-07T10:25:35.765Z,210
2016-07-07T10:26:35.753Z,210
2016-07-07T10:27:35.810Z,205
2016-07-07T10:28:35.824Z,200
2016-07-07T10:29:35.902Z,205
2016-07-07T10:30:35.880Z,210
2016-07-07T10:31:35.906Z,215
2016-07-07T10:32:35.924Z,215
2016-07-07T10:33:35.913Z,215
2016-07-07T10:34:35.956Z,210
2016-07-07T10:35:35.981Z,210
2016-07-07T10:36:35.975Z,210
2016-07-07T10:37:36.005Z,210
2016-07-07T10:38:36.023Z,210
2016-07-07T10:39:36.165Z,210
2016-07-07T10:40:36.092Z,210
2016-07-07T10:41:36.119Z,215
2016-07-07T10:42:36.124Z,220
2016-07-07T10:43:36.152Z,215
2016-07-07T10:44:36.318Z,215
2016-07-07T10:45:36.145Z,215
2016-07-07T10:46:36.237Z,215
2016-07-07T10:47:36.207Z,215
2016-07-07T10:48:36.285Z,210
2016-07-07T10:49:36.428Z,210
2016-07-07T10:50:36.310Z,210
2016-07-07T10:51:36.312Z,210
2016-07-07T10:52:36.358Z,205
2016-07-07T10:53:36.366Z,210
2016-07-07T10:54:36.443Z,205
2016-07-07T10:55:36.423Z,205
2016-07-07T10:56:36.433Z,205
2016-07-07T10:57:36.463Z,205
2016-07-07T10:58:36.481Z,205
2016-07-07T10:59:36.522Z,205
2016-07-07T11:00:36.532Z,205
2016-07-07T11:01:36.543Z,205
2016-07-07T11:02:36.582Z,205
2016-07-07T11:03:36.590Z,205
2016-07-07T11:04:36.604Z,205
2016-07-07T11:05:37.245Z,205
2016-07-07T11:06:36.655Z,205
2016-07-07T11:07:36.675Z,205
2016-07-07T11:08:36.712Z,205
2016-07-07T11:09:36.726Z,210
2016-07-07T11:10:36.740Z,205
2016-07-07T11:11:36.745Z,205
2016-07-07T11:12:36.767Z,205
2016-07-07T11:13:36.805Z,205
2016-07-07T11:14:36.825Z,200
2016-07-07T11:15:36.847Z,200
2016-07-07T11:16:36.859Z,205
2016-07-07T11:17:36.884Z,205
2016-07-07T11:18:36.905Z,205
2016-07-07T11:19:36.957Z,200
2016-07-07T11:20:36.947Z,200
2016-07-07T11:21:36.991Z,205
2016-07-07T11:22:37.009Z,205
2016-07-07T11:23:37.009Z,205
2016-07-07T11:24:37.070Z,205
2016-07-07T11:25:37.070Z,210
2016-07-07T11:26:37.083Z,210
2016-07-07T11:27:37.113Z,210
2016-07-07T11:28:37.111Z,210
2016-07-07T11:29:37.156Z,210
2016-07-07T11:30:37.217Z,210
2016-07-07T11:31:37.197Z,210
2016-07-07T11:32:37.260Z,210
2016-07-07T11:33:37.256Z,210
2016-07-07T11:34:37.261Z,215
2016-07-07T11:35:37.264Z,215
2016-07-07T11:36:37.298Z,215
2016-07-07T11:37:37.310Z,215
2016-07-07T11:38:37.374Z,215
2016-07-07T11:39:37.416Z,215
2016-07-07T11:40:37.392Z,215
2016-07-07T11:41:37.408Z,215
2016-07-07T11:42:37.426Z,215
2016-07-07T11:43:37.455Z,220
2016-07-07T11:44:37.511Z,220
2016-07-07T11:45:37.505Z,220
2016-07-07T11:46:37.528Z,220
2016-07-07T11:47:37.568Z,220
2016-07-07T11:48:37.563Z,225
2016-07-07T11:49:37.602Z,225
2016-07-07T11:50:37.625Z,220
2016-07-07T11:51:37.648Z,220
2016-07-07T11:52:37.665Z,220
2016-07-07T11:53:37.684Z,225
2016-07-07T11:54:37.705Z,225
2016-07-07T11:55:37.739Z,225
2016-07-07T11:56:37.750Z,225
2016-07-07T11:57:37.765Z,225
2016-07-07T11:58:37.797Z,230
2016-07-07T11:59:37.809Z,225
2016-07-07T12:00:37.824Z,225
2016-07-07T12:01:37.865Z,230
2016-07-07T12:02:37.886Z,235
2016-07-07T12:03:37.901Z,230
2016-07-07T12:04:37.931Z,235
2016-07-07T12:05:37.952Z,230
2016-07-07T12:06:37.985Z,225
2016-07-07T12:07:37.996Z,225
2016-07-07T12:08:38.018Z,230
2016-07-07T12:09:38.098Z,230
2016-07-07T12:10:38.060Z,225
2016-07-07T12:11:38.113Z,235
2016-07-07T12:12:38.105Z,235
2016-07-07T12:13:38.149Z,235
2016-07-07T12:14:38.147Z,235
2016-07-07T12:15:38.169Z,235
2016-07-07T12:16:38.184Z,235
2016-07-07T12:17:38.225Z,235
2016-07-07T12:18:38.237Z,235
2016-07-07T12:19:38.471Z,225
2016-07-07T12:20:38.279Z,235
2016-07-07T12:21:38.293Z,235
2016-07-07T12:22:38.338Z,235
2016-07-07T12:23:38.332Z,235
2016-07-07T12:24:38.383Z,240
2016-07-07T12:25:38.425Z,245
2016-07-07T12:26:38.472Z,245
2016-07-07T12:27:38.480Z,250
2016-07-07T12:28:38.496Z,250
2016-07-07T12:29:38.499Z,235
2016-07-07T12:30:38.517Z,250
2016-07-07T12:31:38.542Z,250
2016-07-07T12:32:38.551Z,255
2016-07-07T12:33:38.585Z,255
2016-07-07T12:34:38.591Z,255
2016-07-07T12:35:38.627Z,255
2016-07-07T12:36:38.656Z,255
2016-07-07T12:37:38.661Z,255
2016-07-07T12:38:38.694Z,255
2016-07-07T12:39:38.724Z,255
2016-07-07T12:40:38.728Z,255
2016-07-07T12:41:38.732Z,260
2016-07-07T12:42:38.799Z,255
2016-07-07T12:43:38.810Z,255
2016-07-07T12:44:38.834Z,260
2016-07-07T12:45:38.856Z,260
2016-07-07T12:46:38.874Z,265
2016-07-07T12:47:38.885Z,265
2016-07-07T12:48:38.900Z,270
2016-07-07T12:49:38.962Z,270
2016-07-07T12:50:38.969Z,270
2016-07-07T12:51:38.871Z,270
2016-07-07T12:52:38.930Z,270
2016-07-07T12:53:38.936Z,275
2016-07-07T12:54:38.972Z,260
2016-07-07T12:55:38.986Z,265
2016-07-07T12:56:38.999Z,280
2016-07-07T12:57:39.033Z,255
2016-07-07T12:58:39.071Z,285
2016-07-07T12:59:39.071Z,280
2016-07-07T13:00:39.100Z,285
2016-07-07T13:01:39.133Z,285
2016-07-07T13:02:39.144Z,290
2016-07-07T13:03:39.173Z,285
2016-07-07T13:04:39.196Z,265
2016-07-07T13:05:39.228Z,275
2016-07-07T13:06:39.246Z,265
2016-07-07T13:07:39.260Z,290
2016-07-07T13:08:39.301Z,300
2016-07-07T13:09:39.310Z,285
2016-07-07T13:10:39.331Z,305
2016-07-07T13:11:39.358Z,300
2016-07-07T13:12:39.397Z,300
2016-07-07T13:13:39.407Z,295
2016-07-07T13:14:39.437Z,310
2016-07-07T13:15:39.592Z,310
2016-07-07T13:16:39.479Z,285
2016-07-07T13:17:39.506Z,310
2016-07-07T13:18:39.522Z,315
2016-07-07T13:19:39.569Z,320
2016-07-07T13:20:39.590Z,325
2016-07-07T13:21:39.593Z,315
2016-07-07T13:22:39.634Z,300
2016-07-07T13:23:39.658Z,305
2016-07-07T13:24:39.666Z,305
2016-07-07T13:25:39.708Z,310
2016-07-07T13:26:39.726Z,305
2016-07-07T13:27:39.746Z,305
2016-07-07T13:28:39.773Z,300
2016-07-07T13:29:39.803Z,295
2016-07-07T13:30:39.820Z,285
2016-07-07T13:31:39.848Z,300
2016-07-07T13:32:39.867Z,325
2016-07-07T13:33:39.887Z,330
2016-07-07T13:34:39.950Z,290
2016-07-07T13:35:39.931Z,290
2016-07-07T13:36:39.966Z,295
2016-07-07T13:37:39.996Z,275
2016-07-07T13:38:40.029Z,310
2016-07-07T13:39:40.042Z,330
2016-07-07T13:40:40.066Z,340
2016-07-07T13:41:40.084Z,345
2016-07-07T13:42:40.110Z,310
2016-07-07T13:43:40.126Z,330
2016-07-07T13:44:40.155Z,350
2016-07-07T13:45:40.178Z,295
2016-07-07T13:46:40.221Z,295
2016-07-07T13:47:40.238Z,295
2016-07-07T13:48:40.246Z,320
2016-07-07T13:49:40.291Z,300
2016-07-07T13:50:40.296Z,305
2016-07-07T13:51:40.322Z,330
2016-07-07T13:52:40.346Z,350
2016-07-07T13:53:40.378Z,350
2016-07-07T13:54:40.551Z,360
2016-07-07T13:55:40.434Z,350
2016-07-07T13:56:40.442Z,360
2016-07-07T13:57:40.457Z,365
2016-07-07T13:58:40.510Z,365
2016-07-07T13:59:40.617Z,370
2016-07-07T14:00:40.540Z,360
2016-07-07T14:01:40.566Z,370